createdAt,value
2017-07-05T00:00:46.315Z,1014.76
2017-07-05T00:01:55.447Z,1014.73
2017-07-05T00:03:04.538Z,1014.77
2017-07-05T00:04:13.611Z,1014.73
2017-07-05T00:05:22.946Z,1014.71
2017-07-05T00:06:32.081Z,1014.72
2017-07-05T00:07:41.041Z,1014.73
2017-07-05T00:08:49.962Z,1014.72
2017-07-05T00:09:58.879Z,1014.72
2017-07-05T00:11:07.801Z,1014.7
2017-07-05T00:12:16.724Z,1014.7
2017-07-05T00:13:25.646Z,1014.66
2017-07-05T00:14:34.570Z,1014.71
2017-07-05T00:15:43.495Z,1014.72
2017-07-05T00:16:52.731Z,1014.76
2017-07-05T00:18:04.814Z,1014.77
2017-07-05T00:19:16.695Z,1014.74
2017-07-05T00:20:28.704Z,1014.77
2017-07-05T00:21:37.642Z,1014.73
2017-07-05T00:22:46.600Z,1014.71
2017-07-05T00:23:55.584Z,1014.7
2017-07-05T00:25:04.614Z,1014.69
2017-07-05T00:26:13.675Z,1014.69
2017-07-05T00:27:22.605Z,1014.71
2017-07-05T00:28:31.527Z,1014.73
2017-07-05T00:29:40.789Z,1014.69
2017-07-05T00:30:49.710Z,1014.74
2017-07-05T00:31:58.636Z,1014.75
2017-07-05T00:33:07.551Z,1014.79
2017-07-05T00:34:16.471Z,1014.74
2017-07-05T00:35:25.390Z,1014.73
2017-07-05T00:36:34.325Z,1014.71
2017-07-05T00:37:43.261Z,1014.71
2017-07-05T00:38:52.364Z,1014.68
2017-07-05T00:40:01.379Z,1014.7
2017-07-05T00:41:10.368Z,1014.68
2017-07-05T00:42:19.294Z,1014.67
2017-07-05T00:43:28.213Z,1014.68
2017-07-05T00:44:37.154Z,1014.62
2017-07-05T00:45:46.470Z,1014.64
2017-07-05T00:46:55.507Z,1014.61
2017-07-05T00:48:04.535Z,1014.59
2017-07-05T00:49:13.456Z,1014.58
2017-07-05T00:50:22.540Z,1014.61
2017-07-05T00:51:31.470Z,1014.55
2017-07-05T00:52:40.527Z,1014.52
2017-07-05T00:53:49.781Z,1014.55
2017-07-05T00:54:58.694Z,1014.54
2017-07-05T00:56:07.616Z,1014.55
2017-07-05T00:57:16.656Z,1014.54
2017-07-05T00:58:25.578Z,1014.55
2017-07-05T00:59:34.503Z,1014.52
2017-07-05T01:00:43.511Z,1014.57
2017-07-05T01:01:52.428Z,1014.51
2017-07-05T01:03:01.634Z,1014.49
2017-07-05T01:04:10.673Z,1014.46
2017-07-05T01:05:19.588Z,1014.51
2017-07-05T01:06:28.508Z,1014.45
2017-07-05T01:07:37.469Z,1014.48
2017-07-05T01:08:46.395Z,1014.47
2017-07-05T01:09:55.315Z,1014.45
2017-07-05T01:11:04.232Z,1014.47
2017-07-05T01:12:13.155Z,1014.47
2017-07-05T01:13:22.073Z,1014.52
2017-07-05T01:14:30.996Z,1014.47
2017-07-05T01:15:39.939Z,1014.49
2017-07-05T01:16:48.854Z,1014.45
2017-07-05T01:17:57.773Z,1014.41
2017-07-05T01:19:06.694Z,1014.41
2017-07-05T01:20:15.610Z,1014.37
2017-07-05T01:21:24.527Z,1014.38
2017-07-05T01:22:33.445Z,1014.4
2017-07-05T01:23:42.364Z,1014.41
2017-07-05T01:24:51.290Z,1014.44
2017-07-05T01:26:00.212Z,1014.4
2017-07-05T01:27:09.139Z,1014.37
2017-07-05T01:28:18.062Z,1014.36
2017-07-05T01:29:26.978Z,1014.35
2017-07-05T01:30:35.894Z,1014.36
2017-07-05T01:31:44.818Z,1014.36
2017-07-05T01:32:53.744Z,1014.36
2017-07-05T01:34:02.666Z,1014.37
2017-07-05T01:35:11.585Z,1014.35
2017-07-05T01:36:20.510Z,1014.33
2017-07-05T01:37:29.426Z,1014.34
2017-07-05T01:38:38.769Z,1014.36
2017-07-05T01:39:47.704Z,1014.37
2017-07-05T01:40:56.625Z,1014.35
2017-07-05T01:42:05.541Z,1014.33
2017-07-05T01:43:14.466Z,1014.27
2017-07-05T01:44:23.395Z,1014.31
2017-07-05T01:45:32.312Z,1014.34
2017-07-05T01:46:41.237Z,1014.35
2017-07-05T01:47:50.159Z,1014.38
2017-07-05T01:48:59.069Z,1014.38
2017-07-05T01:50:07.999Z,1014.42
2017-07-05T01:51:16.919Z,1014.38
2017-07-05T01:52:25.838Z,1014.4
2017-07-05T01:53:34.754Z,1014.39
2017-07-05T01:54:43.681Z,1014.4
2017-07-05T01:55:52.605Z,1014.44
2017-07-05T01:57:01.532Z,1014.44
2017-07-05T01:58:10.455Z,1014.41
2017-07-05T01:59:19.448Z,1014.43
2017-07-05T02:00:28.367Z,1014.44
2017-07-05T02:01:37.286Z,1014.42
2017-07-05T02:02:46.207Z,1014.43
2017-07-05T02:03:55.121Z,1014.38
2017-07-05T02:05:04.049Z,1014.36
2017-07-05T02:06:12.966Z,1014.35
2017-07-05T02:07:21.889Z,1014.37
2017-07-05T02:08:30.826Z,1014.3
2017-07-05T02:09:39.722Z,1014.24
2017-07-05T02:10:48.645Z,1014.24
2017-07-05T02:11:57.570Z,1014.26
2017-07-05T02:13:06.493Z,1014.23
2017-07-05T02:14:15.418Z,1014.18
2017-07-05T02:15:24.338Z,1014.16
2017-07-05T02:16:33.255Z,1014.13
2017-07-05T02:17:42.184Z,1014.2
2017-07-05T02:18:51.113Z,1014.21
2017-07-05T02:20:00.033Z,1014.19
2017-07-05T02:21:08.961Z,1014.12
2017-07-05T02:22:17.879Z,1014.08
2017-07-05T02:23:26.805Z,1014.11
2017-07-05T02:24:36.058Z,1014.06
2017-07-05T02:25:45.068Z,1014.08
2017-07-05T02:26:53.992Z,1014.04
2017-07-05T02:28:02.913Z,1014.01
2017-07-05T02:29:11.825Z,1013.98
2017-07-05T02:30:20.750Z,1013.97
2017-07-05T02:31:29.666Z,1014.03
2017-07-05T02:32:38.596Z,1014.02
2017-07-05T02:33:47.514Z,1014.04
2017-07-05T02:34:56.429Z,1014.08
2017-07-05T02:36:05.351Z,1014.11
2017-07-05T02:37:14.270Z,1014.1
2017-07-05T02:38:23.196Z,1014.1
2017-07-05T02:39:32.116Z,1014.1
2017-07-05T02:40:41.039Z,1014.14
2017-07-05T02:41:49.956Z,1014.17
2017-07-05T02:42:58.874Z,1014.16
2017-07-05T02:44:07.796Z,1014.14
2017-07-05T02:45:16.718Z,1014.13
2017-07-05T02:46:25.640Z,1014.09
2017-07-05T02:47:34.566Z,1014.13
2017-07-05T02:48:43.560Z,1014.1
2017-07-05T02:49:52.475Z,1014.02
2017-07-05T02:51:01.391Z,1014.06
2017-07-05T02:52:10.313Z,1014.01
2017-07-05T02:53:19.237Z,1013.99
2017-07-05T02:54:28.248Z,1013.97
2017-07-05T02:55:37.165Z,1013.94
2017-07-05T02:56:46.090Z,1013.95
2017-07-05T02:57:55.013Z,1013.96
2017-07-05T02:59:04.019Z,1013.91
2017-07-05T03:00:12.945Z,1013.88
2017-07-05T03:01:21.858Z,1013.91
2017-07-05T03:02:30.779Z,1013.86
2017-07-05T03:03:39.690Z,1013.87
2017-07-05T03:04:48.607Z,1013.91
2017-07-05T03:05:57.524Z,1013.91
2017-07-05T03:07:06.438Z,1013.93
2017-07-05T03:08:15.365Z,1013.9
2017-07-05T03:09:24.284Z,1013.92
2017-07-05T03:10:33.202Z,1013.96
2017-07-05T03:11:42.200Z,1013.96
2017-07-05T03:12:51.120Z,1013.95
2017-07-05T03:14:00.120Z,1013.96
2017-07-05T03:15:09.033Z,1013.99
2017-07-05T03:16:17.963Z,1013.99
2017-07-05T03:17:26.882Z,1014.02
2017-07-05T03:18:35.805Z,1014.07
2017-07-05T03:19:44.730Z,1014.05
2017-07-05T03:20:53.651Z,1014.02
2017-07-05T03:22:02.570Z,1014.01
2017-07-05T03:23:11.493Z,1014.08
2017-07-05T03:24:20.412Z,1014.05
2017-07-05T03:25:29.334Z,1014.03
2017-07-05T03:26:38.256Z,1013.99
2017-07-05T03:27:47.172Z,1014
2017-07-05T03:28:56.095Z,1014.02
2017-07-05T03:30:05.005Z,1013.99
2017-07-05T03:31:13.927Z,1014
2017-07-05T03:32:22.933Z,1014.03
2017-07-05T03:33:31.855Z,1013.99
2017-07-05T03:34:40.770Z,1013.99
2017-07-05T03:35:49.692Z,1013.94
2017-07-05T03:36:58.607Z,1013.93
2017-07-05T03:38:07.525Z,1013.91
2017-07-05T03:39:16.452Z,1013.92
2017-07-05T03:40:25.375Z,1013.93
2017-07-05T03:41:34.314Z,1013.96
2017-07-05T03:42:43.220Z,1013.98
2017-07-05T03:43:52.137Z,1014
2017-07-05T03:45:01.147Z,1013.99
2017-07-05T03:46:10.070Z,1013.98
2017-07-05T03:47:19.082Z,1014.04
2017-07-05T03:48:28.000Z,1014.03
2017-07-05T03:49:36.921Z,1014.02
2017-07-05T03:50:45.843Z,1013.99
2017-07-05T03:51:54.760Z,1013.95
2017-07-05T03:53:04.034Z,1014.01
2017-07-05T03:54:12.956Z,1014.03
2017-07-05T03:55:21.880Z,1014.04
2017-07-05T03:56:30.808Z,1014.05
2017-07-05T03:57:39.728Z,1014.03
2017-07-05T03:58:48.644Z,1014.03
2017-07-05T03:59:57.971Z,1014.04
2017-07-05T04:01:06.889Z,1014.05
2017-07-05T04:02:15.815Z,1014.05
2017-07-05T04:03:24.735Z,1014.02
2017-07-05T04:04:33.650Z,1014.03
2017-07-05T04:05:42.572Z,1013.99
2017-07-05T04:06:51.498Z,1014.01
2017-07-05T04:08:00.415Z,1013.99
2017-07-05T04:09:09.334Z,1013.99
2017-07-05T04:10:18.255Z,1013.96
2017-07-05T04:11:27.167Z,1013.95
2017-07-05T04:12:36.090Z,1013.92
2017-07-05T04:13:45.014Z,1013.93
2017-07-05T04:14:53.939Z,1013.97
2017-07-05T04:16:02.855Z,1013.94
2017-07-05T04:17:11.776Z,1013.95
2017-07-05T04:18:20.701Z,1013.94
2017-07-05T04:19:29.650Z,1013.92
2017-07-05T04:20:38.573Z,1013.9
2017-07-05T04:21:47.492Z,1013.87
2017-07-05T04:22:56.410Z,1013.9
2017-07-05T04:24:05.328Z,1013.91
2017-07-05T04:25:14.246Z,1013.89
2017-07-05T04:26:23.168Z,1013.91
2017-07-05T04:27:32.098Z,1013.94
2017-07-05T04:28:41.020Z,1013.95
2017-07-05T04:29:49.939Z,1013.99
2017-07-05T04:30:58.855Z,1013.98
2017-07-05T04:32:07.766Z,1014.04
2017-07-05T04:33:16.692Z,1014.04
2017-07-05T04:34:25.619Z,1014.07
2017-07-05T04:35:34.534Z,1014.07
2017-07-05T04:36:43.456Z,1014.07
2017-07-05T04:37:52.469Z,1014.12
2017-07-05T04:39:01.391Z,1014.13
2017-07-05T04:40:10.312Z,1014.17
2017-07-05T04:41:19.232Z,1014.18
2017-07-05T04:42:28.154Z,1014.14
2017-07-05T04:43:37.082Z,1014.1
2017-07-05T04:44:46.000Z,1014.08
2017-07-05T04:45:54.925Z,1014.08
2017-07-05T04:47:03.847Z,1014.04
2017-07-05T04:48:12.767Z,1014.04
2017-07-05T04:49:21.697Z,1014.06
2017-07-05T04:50:30.617Z,1014.02
2017-07-05T04:51:39.537Z,1014.08
2017-07-05T04:52:48.461Z,1014.09
2017-07-05T04:53:57.379Z,1014.12
2017-07-05T04:55:06.307Z,1014.13
2017-07-05T04:56:15.227Z,1014.11
2017-07-05T04:57:24.154Z,1014.12
2017-07-05T04:58:33.077Z,1014.12
2017-07-05T04:59:41.998Z,1014.12
2017-07-05T05:00:51.011Z,1014.18
2017-07-05T05:01:59.931Z,1014.14
2017-07-05T05:03:08.859Z,1014.11
2017-07-05T05:04:17.772Z,1014.17
2017-07-05T05:05:26.701Z,1014.15
2017-07-05T05:06:35.621Z,1014.19
2017-07-05T05:07:44.543Z,1014.18
2017-07-05T05:08:53.460Z,1014.22
2017-07-05T05:10:02.381Z,1014.22
2017-07-05T05:11:11.293Z,1014.25
2017-07-05T05:12:20.216Z,1014.31
2017-07-05T05:13:29.462Z,1014.26
2017-07-05T05:14:38.379Z,1014.28
2017-07-05T05:15:47.291Z,1014.35
2017-07-05T05:16:56.215Z,1014.38
2017-07-05T05:18:05.133Z,1014.34
2017-07-05T05:19:14.059Z,1014.41
2017-07-05T05:20:22.987Z,1014.38
2017-07-05T05:21:31.901Z,1014.41
2017-07-05T05:22:40.821Z,1014.42
2017-07-05T05:23:49.742Z,1014.42
2017-07-05T05:24:58.665Z,1014.44
2017-07-05T05:26:07.584Z,1014.4
2017-07-05T05:27:16.499Z,1014.39
2017-07-05T05:28:25.421Z,1014.44
2017-07-05T05:29:34.337Z,1014.38
2017-07-05T05:30:43.347Z,1014.43
2017-07-05T05:31:52.267Z,1014.41
2017-07-05T05:33:01.194Z,1014.4
2017-07-05T05:34:10.118Z,1014.44
2017-07-05T05:35:19.043Z,1014.39
2017-07-05T05:36:27.966Z,1014.4
2017-07-05T05:37:36.883Z,1014.39
2017-07-05T05:38:45.894Z,1014.41
2017-07-05T05:39:54.821Z,1014.42
2017-07-05T05:41:03.746Z,1014.44
2017-07-05T05:42:12.665Z,1014.41
2017-07-05T05:43:21.589Z,1014.37
2017-07-05T05:44:30.504Z,1014.38
2017-07-05T05:45:39.424Z,1014.38
2017-07-05T05:46:48.347Z,1014.39
2017-07-05T05:47:57.269Z,1014.42
2017-07-05T05:49:06.189Z,1014.45
2017-07-05T05:50:15.107Z,1014.49
2017-07-05T05:51:24.022Z,1014.48
2017-07-05T05:52:32.943Z,1014.51
2017-07-05T05:53:41.861Z,1014.58
2017-07-05T05:54:50.776Z,1014.55
2017-07-05T05:55:59.698Z,1014.59
2017-07-05T05:57:08.619Z,1014.64
2017-07-05T05:58:17.543Z,1014.59
2017-07-05T05:59:26.461Z,1014.66
2017-07-05T06:00:35.378Z,1014.66
2017-07-05T06:01:44.298Z,1014.7
2017-07-05T06:02:53.229Z,1014.72
2017-07-05T06:04:02.150Z,1014.7
2017-07-05T06:05:11.072Z,1014.73
2017-07-05T06:06:19.993Z,1014.72
2017-07-05T06:07:28.906Z,1014.72
2017-07-05T06:08:37.826Z,1014.71
2017-07-05T06:09:46.737Z,1014.71
2017-07-05T06:10:55.657Z,1014.66
2017-07-05T06:12:04.573Z,1014.64
2017-07-05T06:13:13.489Z,1014.69
2017-07-05T06:14:22.398Z,1014.68
2017-07-05T06:15:31.318Z,1014.66
2017-07-05T06:16:40.236Z,1014.66
2017-07-05T06:17:49.154Z,1014.64
2017-07-05T06:18:58.071Z,1014.7
2017-07-05T06:20:06.985Z,1014.73
2017-07-05T06:21:15.951Z,1014.81
2017-07-05T06:22:24.834Z,1014.85
2017-07-05T06:23:33.843Z,1014.9
2017-07-05T06:24:42.774Z,1014.83
2017-07-05T06:25:51.696Z,1014.86
2017-07-05T06:27:00.614Z,1014.79
2017-07-05T06:28:09.535Z,1014.8
2017-07-05T06:29:18.458Z,1014.77
2017-07-05T06:30:27.379Z,1014.74
2017-07-05T06:31:36.305Z,1014.74
2017-07-05T06:32:45.224Z,1014.77
2017-07-05T06:33:54.141Z,1014.79
2017-07-05T06:35:03.152Z,1014.72
2017-07-05T06:36:12.076Z,1014.66
2017-07-05T06:37:20.994Z,1014.64
2017-07-05T06:38:29.917Z,1014.67
2017-07-05T06:39:38.837Z,1014.69
2017-07-05T06:40:47.758Z,1014.77
2017-07-05T06:41:56.679Z,1014.83
2017-07-05T06:43:05.595Z,1014.86
2017-07-05T06:44:14.512Z,1014.86
2017-07-05T06:45:23.432Z,1014.8
2017-07-05T06:46:32.357Z,1014.76
2017-07-05T06:47:41.604Z,1014.74
2017-07-05T06:48:50.526Z,1014.77
2017-07-05T06:49:59.443Z,1014.74
2017-07-05T06:51:08.365Z,1014.76
2017-07-05T06:52:17.287Z,1014.77
2017-07-05T06:53:26.212Z,1014.76
2017-07-05T06:54:35.136Z,1014.77
2017-07-05T06:55:44.057Z,1014.77
2017-07-05T06:56:52.980Z,1014.77
2017-07-05T06:58:01.895Z,1014.78
2017-07-05T06:59:10.868Z,1014.83
2017-07-05T07:00:19.819Z,1014.84
2017-07-05T07:01:28.730Z,1014.93
2017-07-05T07:02:38.900Z,1014.93
2017-07-05T07:03:49.399Z,1014.96
2017-07-05T07:04:58.317Z,1014.95
2017-07-05T07:06:07.531Z,1014.92
2017-07-05T07:07:16.720Z,1014.92
2017-07-05T07:08:25.632Z,1014.95
2017-07-05T07:09:34.544Z,1014.93
2017-07-05T07:10:43.469Z,1014.92
2017-07-05T07:11:52.389Z,1014.91
2017-07-05T07:13:01.325Z,1014.95
2017-07-05T07:14:10.247Z,1014.95
2017-07-05T07:15:19.165Z,1014.92
2017-07-05T07:16:28.083Z,1014.86
2017-07-05T07:17:37.009Z,1014.84
2017-07-05T07:18:45.928Z,1014.82
2017-07-05T07:19:54.847Z,1014.83
2017-07-05T07:21:03.765Z,1014.79
2017-07-05T07:22:12.681Z,1014.82
2017-07-05T07:23:21.650Z,1014.81
2017-07-05T07:24:30.803Z,1014.82
2017-07-05T07:25:39.809Z,1014.81
2017-07-05T07:26:48.788Z,1014.87
2017-07-05T07:27:57.864Z,1014.88
2017-07-05T07:29:06.871Z,1014.84
2017-07-05T07:30:15.811Z,1014.83
2017-07-05T07:31:24.772Z,1014.8
2017-07-05T07:32:33.753Z,1014.84
2017-07-05T07:33:42.719Z,1014.85
2017-07-05T07:34:51.644Z,1014.87
2017-07-05T07:36:00.559Z,1014.89
2017-07-05T07:37:09.551Z,1014.86
2017-07-05T07:38:18.569Z,1014.81
2017-07-05T07:39:27.632Z,1014.79
2017-07-05T07:40:36.552Z,1014.77
2017-07-05T07:41:45.692Z,1014.77
2017-07-05T07:42:54.611Z,1014.75
2017-07-05T07:44:03.577Z,1014.76
2017-07-05T07:45:12.499Z,1014.77
2017-07-05T07:46:21.512Z,1014.76
2017-07-05T07:47:30.468Z,1014.74
2017-07-05T07:48:39.388Z,1014.72
2017-07-05T07:49:48.413Z,1014.69
2017-07-05T07:50:57.474Z,1014.68
2017-07-05T07:52:06.455Z,1014.67
2017-07-05T07:53:15.373Z,1014.71
2017-07-05T07:54:24.430Z,1014.66
2017-07-05T07:55:33.374Z,1014.69
2017-07-05T07:56:42.305Z,1014.7
2017-07-05T07:57:51.396Z,1014.66
2017-07-05T07:59:00.390Z,1014.63
2017-07-05T08:00:09.421Z,1014.68
2017-07-05T08:01:18.373Z,1014.68
2017-07-05T08:02:27.334Z,1014.7
2017-07-05T08:03:36.320Z,1014.73
2017-07-05T08:04:45.242Z,1014.74
2017-07-05T08:05:54.161Z,1014.73
2017-07-05T08:07:03.081Z,1014.73
2017-07-05T08:08:12.331Z,1014.75
2017-07-05T08:09:21.368Z,1014.72
2017-07-05T08:10:30.599Z,1014.71
2017-07-05T08:11:39.910Z,1014.69
2017-07-05T08:12:48.935Z,1014.68
2017-07-05T08:13:58.118Z,1014.65
2017-07-05T08:15:07.071Z,1014.64
2017-07-05T08:16:16.244Z,1014.65
2017-07-05T08:17:25.190Z,1014.61
2017-07-05T08:18:34.353Z,1014.66
2017-07-05T08:19:43.421Z,1014.6
2017-07-05T08:20:52.404Z,1014.63
2017-07-05T08:22:01.347Z,1014.63
2017-07-05T08:23:10.385Z,1014.68
2017-07-05T08:24:19.304Z,1014.64
2017-07-05T08:25:28.263Z,1014.66
2017-07-05T08:26:37.390Z,1014.62
2017-07-05T08:27:46.406Z,1014.61
2017-07-05T08:28:55.416Z,1014.59
2017-07-05T08:30:04.793Z,1014.59
2017-07-05T08:31:13.802Z,1014.58
2017-07-05T08:32:22.766Z,1014.59
2017-07-05T08:33:31.796Z,1014.61
2017-07-05T08:34:40.994Z,1014.57
2017-07-05T08:35:50.095Z,1014.53
2017-07-05T08:36:59.126Z,1014.53
2017-07-05T08:38:08.112Z,1014.57
2017-07-05T08:39:17.030Z,1014.57
2017-07-05T08:40:25.948Z,1014.61
2017-07-05T08:41:34.868Z,1014.63
2017-07-05T08:42:43.792Z,1014.65
2017-07-05T08:43:52.710Z,1014.62
2017-07-05T08:45:01.813Z,1014.63
2017-07-05T08:46:10.915Z,1014.65
2017-07-05T08:47:19.838Z,1014.67
2017-07-05T08:48:29.109Z,1014.72
2017-07-05T08:49:38.777Z,1014.75
2017-07-05T08:50:48.073Z,1014.78
2017-07-05T08:51:57.119Z,1014.81
2017-07-05T08:53:06.073Z,1014.8
2017-07-05T08:54:15.140Z,1014.81
2017-07-05T08:55:24.134Z,1014.76
2017-07-05T08:56:33.156Z,1014.76
2017-07-05T08:57:42.071Z,1014.73
2017-07-05T08:58:50.993Z,1014.71
2017-07-05T08:59:59.911Z,1014.73
2017-07-05T09:01:08.936Z,1014.8
2017-07-05T09:02:18.162Z,1014.7
2017-07-05T09:03:27.208Z,1014.7
2017-07-05T09:04:36.260Z,1014.71
2017-07-05T09:05:45.258Z,1014.79
2017-07-05T09:06:54.349Z,1014.77
2017-07-05T09:08:03.385Z,1014.77
2017-07-05T09:09:12.680Z,1014.76
2017-07-05T09:10:21.598Z,1014.72
2017-07-05T09:11:30.548Z,1014.69
2017-07-05T09:12:39.840Z,1014.72
2017-07-05T09:13:49.282Z,1014.68
2017-07-05T09:14:58.640Z,1014.68
2017-07-05T09:16:07.734Z,1014.71
2017-07-05T09:17:16.837Z,1014.7
2017-07-05T09:18:26.228Z,1014.69
2017-07-05T09:19:35.176Z,1014.73
2017-07-05T09:20:44.218Z,1014.76
2017-07-05T09:21:53.210Z,1014.79
2017-07-05T09:23:02.220Z,1014.76
2017-07-05T09:24:11.224Z,1014.71
2017-07-05T09:25:20.347Z,1014.71
2017-07-05T09:26:29.644Z,1014.75
2017-07-05T09:27:38.743Z,1014.78
2017-07-05T09:28:47.660Z,1014.8
2017-07-05T09:29:56.721Z,1014.79
2017-07-05T09:31:05.782Z,1014.75
2017-07-05T09:32:14.735Z,1014.84
2017-07-05T09:33:23.787Z,1014.76
2017-07-05T09:34:32.864Z,1014.66
2017-07-05T09:35:41.871Z,1014.66
2017-07-05T09:36:50.908Z,1014.69
2017-07-05T09:37:59.867Z,1014.72
2017-07-05T09:39:08.878Z,1014.72
2017-07-05T09:40:17.968Z,1014.73
2017-07-05T09:41:26.949Z,1014.73
2017-07-05T09:42:35.873Z,1014.68
2017-07-05T09:43:44.795Z,1014.68
2017-07-05T09:44:53.926Z,1014.7
2017-07-05T09:46:02.848Z,1014.69
2017-07-05T09:47:11.761Z,1014.67
2017-07-05T09:48:20.687Z,1014.67
2017-07-05T09:49:29.693Z,1014.63
2017-07-05T09:50:38.649Z,1014.62
2017-07-05T09:51:48.907Z,1014.67
2017-07-05T09:53:08.579Z,1014.61
2017-07-05T09:54:17.499Z,1014.65
2017-07-05T09:55:26.417Z,1014.63
2017-07-05T09:56:35.338Z,1014.63
2017-07-05T09:57:44.264Z,1014.61
2017-07-05T09:58:53.177Z,1014.59
2017-07-05T10:00:02.102Z,1014.64
2017-07-05T10:01:11.061Z,1014.67
2017-07-05T10:02:19.981Z,1014.69
2017-07-05T10:03:28.898Z,1014.62
2017-07-05T10:04:37.822Z,1014.63
2017-07-05T10:05:46.828Z,1014.64
2017-07-05T10:06:55.746Z,1014.63
2017-07-05T10:08:04.673Z,1014.69
2017-07-05T10:09:13.597Z,1014.72
2017-07-05T10:10:22.524Z,1014.63
2017-07-05T10:11:31.448Z,1014.66
2017-07-05T10:12:40.366Z,1014.63
2017-07-05T10:13:49.286Z,1014.59
2017-07-05T10:14:58.217Z,1014.62
2017-07-05T10:16:07.141Z,1014.63
2017-07-05T10:17:16.060Z,1014.61
2017-07-05T10:18:24.976Z,1014.63
2017-07-05T10:19:33.892Z,1014.68
2017-07-05T10:20:42.812Z,1014.59
2017-07-05T10:21:51.732Z,1014.67
2017-07-05T10:23:00.653Z,1014.63
2017-07-05T10:24:09.576Z,1014.64
2017-07-05T10:25:18.497Z,1014.64
2017-07-05T10:26:27.510Z,1014.59
2017-07-05T10:27:36.766Z,1014.62
2017-07-05T10:28:45.687Z,1014.58
2017-07-05T10:29:54.609Z,1014.56
2017-07-05T10:31:03.526Z,1014.52
2017-07-05T10:32:12.447Z,1014.61
2017-07-05T10:33:21.382Z,1014.59
2017-07-05T10:34:30.304Z,1014.55
2017-07-05T10:35:39.228Z,1014.57
2017-07-05T10:36:48.144Z,1014.52
2017-07-05T10:37:57.072Z,1014.5
2017-07-05T10:39:05.986Z,1014.49
2017-07-05T10:40:14.905Z,1014.52
2017-07-05T10:41:23.871Z,1014.56
2017-07-05T10:42:32.813Z,1014.54
2017-07-05T10:43:42.065Z,1014.53
2017-07-05T10:44:51.325Z,1014.51
2017-07-05T10:46:00.255Z,1014.54
2017-07-05T10:47:09.177Z,1014.51
2017-07-05T10:48:18.102Z,1014.53
2017-07-05T10:49:27.027Z,1014.58
2017-07-05T10:50:35.944Z,1014.54
2017-07-05T10:51:44.861Z,1014.53
2017-07-05T10:52:53.782Z,1014.58
2017-07-05T10:54:02.712Z,1014.57
2017-07-05T10:55:11.628Z,1014.5
2017-07-05T10:56:20.550Z,1014.55
2017-07-05T10:57:29.471Z,1014.47
2017-07-05T10:58:38.472Z,1014.55
2017-07-05T10:59:47.393Z,1014.52
2017-07-05T11:00:56.315Z,1014.48
2017-07-05T11:02:05.241Z,1014.48
2017-07-05T11:03:14.165Z,1014.49
2017-07-05T11:04:23.086Z,1014.53
2017-07-05T11:05:32.017Z,1014.49
2017-07-05T11:06:40.939Z,1014.46
2017-07-05T11:07:49.863Z,1014.48
2017-07-05T11:08:58.782Z,1014.45
2017-07-05T11:10:07.700Z,1014.48
2017-07-05T11:11:16.622Z,1014.41
2017-07-05T11:12:25.547Z,1014.36
2017-07-05T11:13:34.468Z,1014.38
2017-07-05T11:14:43.397Z,1014.43
2017-07-05T11:15:52.314Z,1014.42
2017-07-05T11:17:01.237Z,1014.45
2017-07-05T11:18:10.167Z,1014.38
2017-07-05T11:19:19.095Z,1014.35
2017-07-05T11:20:28.019Z,1014.32
2017-07-05T11:21:36.941Z,1014.34
2017-07-05T11:22:45.858Z,1014.32
2017-07-05T11:23:54.784Z,1014.32
2017-07-05T11:25:03.712Z,1014.32
2017-07-05T11:26:12.634Z,1014.29
2017-07-05T11:27:21.557Z,1014.31
2017-07-05T11:28:30.486Z,1014.34
2017-07-05T11:29:39.410Z,1014.35
2017-07-05T11:30:48.335Z,1014.34
2017-07-05T11:31:57.254Z,1014.37
2017-07-05T11:33:06.181Z,1014.36
2017-07-05T11:34:15.105Z,1014.33
2017-07-05T11:35:24.026Z,1014.31
2017-07-05T11:36:32.954Z,1014.33
2017-07-05T11:37:41.876Z,1014.31
2017-07-05T11:38:50.802Z,1014.33
2017-07-05T11:39:59.719Z,1014.33
2017-07-05T11:41:08.687Z,1014.35
2017-07-05T11:42:17.562Z,1014.33
2017-07-05T11:43:26.481Z,1014.32
2017-07-05T11:44:35.744Z,1014.33
2017-07-05T11:45:44.659Z,1014.27
2017-07-05T11:46:53.581Z,1014.31
2017-07-05T11:48:02.506Z,1014.32
2017-07-05T11:49:11.486Z,1014.27
2017-07-05T11:50:20.352Z,1014.28
2017-07-05T11:51:29.272Z,1014.25
2017-07-05T11:52:38.194Z,1014.16
2017-07-05T11:53:47.121Z,1014.18
2017-07-05T11:54:56.048Z,1014.2
2017-07-05T11:56:05.304Z,1014.22
2017-07-05T11:57:14.318Z,1014.23
2017-07-05T11:58:23.244Z,1014.17
2017-07-05T11:59:32.165Z,1014.16
2017-07-05T12:00:41.089Z,1014.13
2017-07-05T12:01:50.014Z,1014.14
2017-07-05T12:02:58.942Z,1014.19
2017-07-05T12:04:07.865Z,1014.14
2017-07-05T12:05:16.789Z,1014.13
2017-07-05T12:06:25.711Z,1014.15
2017-07-05T12:07:34.632Z,1014.14
2017-07-05T12:08:43.551Z,1014.12
2017-07-05T12:09:52.467Z,1014.12
2017-07-05T12:11:01.384Z,1014.08
2017-07-05T12:12:10.636Z,1014.11
2017-07-05T12:13:19.560Z,1014.11
2017-07-05T12:14:28.491Z,1014.12
2017-07-05T12:15:37.417Z,1014.14
2017-07-05T12:16:46.337Z,1014.14
2017-07-05T12:17:55.267Z,1014.1
2017-07-05T12:19:04.189Z,1014.18
2017-07-05T12:20:13.103Z,1014.18
2017-07-05T12:21:22.022Z,1014.13
2017-07-05T12:22:30.951Z,1014.12
2017-07-05T12:23:39.962Z,1014.19
2017-07-05T12:24:48.884Z,1014.22
2017-07-05T12:25:57.857Z,1014.15
2017-07-05T12:27:06.737Z,1014.08
2017-07-05T12:28:15.661Z,1014.15
2017-07-05T12:29:24.586Z,1014.12
2017-07-05T12:30:33.504Z,1014.16
2017-07-05T12:31:42.431Z,1014.12
2017-07-05T12:32:51.361Z,1014.13
2017-07-05T12:34:00.611Z,1014.18
2017-07-05T12:35:09.614Z,1014.18
2017-07-05T12:36:18.534Z,1014.16
2017-07-05T12:37:27.454Z,1014.18
2017-07-05T12:38:36.385Z,1014.17
2017-07-05T12:39:45.310Z,1014.13
2017-07-05T12:40:54.224Z,1014.19
2017-07-05T12:42:03.149Z,1014.15
2017-07-05T12:43:12.066Z,1014.12
2017-07-05T12:44:20.986Z,1014.12
2017-07-05T12:45:29.904Z,1014.15
2017-07-05T12:46:38.833Z,1014.16
2017-07-05T12:47:47.757Z,1014.09
2017-07-05T12:48:56.682Z,1014.1
2017-07-05T12:50:05.687Z,1014.09
2017-07-05T12:51:14.612Z,1014.08
2017-07-05T12:52:23.532Z,1014.13
2017-07-05T12:53:32.450Z,1014.09
2017-07-05T12:54:41.370Z,1014.09
2017-07-05T12:55:50.290Z,1014.11
2017-07-05T12:56:59.209Z,1014.04
2017-07-05T12:58:08.133Z,1014.06
2017-07-05T12:59:17.049Z,1014.08
2017-07-05T13:00:25.976Z,1014.04
2017-07-05T13:01:34.904Z,1014.06
2017-07-05T13:02:43.916Z,1014.05
2017-07-05T13:03:52.834Z,1014.02
2017-07-05T13:05:01.757Z,1014.03
2017-07-05T13:06:10.682Z,1014.03
2017-07-05T13:07:19.601Z,1014.06
2017-07-05T13:08:28.518Z,1014.08
2017-07-05T13:09:37.439Z,1014.02
2017-07-05T13:10:46.366Z,1013.98
2017-07-05T13:11:55.309Z,1014.06
2017-07-05T13:13:04.262Z,1014.02
2017-07-05T13:14:13.207Z,1014.02
2017-07-05T13:15:22.158Z,1014.03
2017-07-05T13:16:31.102Z,1014.02
2017-07-05T13:17:40.049Z,1013.99
2017-07-05T13:18:49.001Z,1014
2017-07-05T13:19:57.939Z,1014.05
2017-07-05T13:21:06.885Z,1013.98
2017-07-05T13:22:15.829Z,1014.01
2017-07-05T13:23:24.780Z,1013.96
2017-07-05T13:24:33.732Z,1013.94
2017-07-05T13:25:42.691Z,1013.99
2017-07-05T13:26:51.630Z,1013.97
2017-07-05T13:28:00.670Z,1013.95
2017-07-05T13:29:09.612Z,1013.97
2017-07-05T13:30:18.561Z,1013.97
2017-07-05T13:31:27.584Z,1014.02
2017-07-05T13:32:36.532Z,1014.01
2017-07-05T13:33:45.477Z,1014.04
2017-07-05T13:34:54.432Z,1014.01
2017-07-05T13:36:03.372Z,1014.05
2017-07-05T13:37:12.327Z,1014.05
2017-07-05T13:38:21.279Z,1014.01
2017-07-05T13:39:30.227Z,1013.98
2017-07-05T13:40:39.178Z,1013.96
2017-07-05T13:41:48.129Z,1013.94
2017-07-05T13:42:57.080Z,1013.94
2017-07-05T13:44:06.022Z,1013.95
2017-07-05T13:45:14.968Z,1013.94
2017-07-05T13:46:23.922Z,1013.96
2017-07-05T13:47:32.872Z,1013.95
2017-07-05T13:48:41.826Z,1013.98
2017-07-05T13:49:50.777Z,1013.95
2017-07-05T13:50:59.727Z,1013.95
2017-07-05T13:52:08.797Z,1013.89
2017-07-05T13:53:17.744Z,1013.92
2017-07-05T13:54:26.691Z,1013.94
2017-07-05T13:55:35.632Z,1013.9
2017-07-05T13:56:44.684Z,1013.87